Prachuap Khirikhan, Thailand
Current Conditions -  °F | °C
As of 1:30 AM on Sunday 26 Oct 2014 (Local Time) from VTBU Reporting Station
Haze Haze  
Wind Chill: 77°   Ceiling: 30000
Heat Index: 78°   Visibility: 3mi
Dew Point: 75°   Wind: 6mph
Humidity: 94%   Direction: 340°NNW
Pressure: 29.85"   Gusts: NA
Location:  11.83°N, 99.83°E
Report Text: VTBU 251830Z 34005KT 5000 BR FEW020 BKN300 25/24 Q1011 A2987
Loading
Personal Weather Stations






























Interactive Weather Map
Tropical Storm Tracking
New forecast layout! Learn more

10-Day Weather Forecast

Advertisements
Track Severe Weather on mobile